sensor_id;sensor_type;location;lat;lon;timestamp;pressure;altitude;pressure_sealevel;temperature;humidity
69127;BME280;56688;50.234;19.292;2023-07-31T00:01:26;98083.05;;;17.86;82.07
69127;BME280;56688;50.234;19.292;2023-07-31T00:03:53;98082.86;;;17.84;82.14
69127;BME280;56688;50.234;19.292;2023-07-31T00:06:20;98078.63;;;17.82;82.13
69127;BME280;56688;50.234;19.292;2023-07-31T00:08:47;98082.44;;;17.77;82.63
69127;BME280;56688;50.234;19.292;2023-07-31T00:11:14;98086.56;;;17.72;83.21
69127;BME280;56688;50.234;19.292;2023-07-31T00:13:41;98089.80;;;17.67;83.87
69127;BME280;56688;50.234;19.292;2023-07-31T00:16:08;98087.56;;;17.65;84.33
69127;BME280;56688;50.234;19.292;2023-07-31T00:18:35;98090.83;;;17.67;84.50
69127;BME280;56688;50.234;19.292;2023-07-31T00:21:02;98088.94;;;17.71;84.70
69127;BME280;56688;50.234;19.292;2023-07-31T00:23:29;98094.90;;;17.76;84.61
69127;BME280;56688;50.234;19.292;2023-07-31T00:25:56;98089.28;;;17.76;84.62
69127;BME280;56688;50.234;19.292;2023-07-31T00:28:24;98091.02;;;17.84;84.93
69127;BME280;56688;50.234;19.292;2023-07-31T00:30:51;98093.07;;;17.88;84.87
69127;BME280;56688;50.234;19.292;2023-07-31T00:33:18;98093.91;;;17.91;84.91
69127;BME280;56688;50.234;19.292;2023-07-31T00:35:45;98095.59;;;17.92;84.72
69127;BME280;56688;50.234;19.292;2023-07-31T00:38:12;98101.06;;;17.93;84.60
69127;BME280;56688;50.234;19.292;2023-07-31T00:40:39;98103.73;;;17.94;84.37
69127;BME280;56688;50.234;19.292;2023-07-31T00:43:06;98104.25;;;17.92;84.42
69127;BME280;56688;50.234;19.292;2023-07-31T00:45:34;98108.64;;;17.89;84.52
69127;BME280;56688;50.234;19.292;2023-07-31T00:48:02;98105.41;;;17.87;84.54
69127;BME280;56688;50.234;19.292;2023-07-31T00:50:30;98104.27;;;17.84;84.58
69127;BME280;56688;50.234;19.292;2023-07-31T00:52:57;98100.52;;;17.82;84.66
69127;BME280;56688;50.234;19.292;2023-07-31T00:55:25;98101.80;;;17.81;84.66
69127;BME280;56688;50.234;19.292;2023-07-31T00:57:52;98102.27;;;17.78;84.76
69127;BME280;56688;50.234;19.292;2023-07-31T01:00:22;98108.64;;;17.78;84.52
69127;BME280;56688;50.234;19.292;2023-07-31T01:02:50;98104.36;;;17.76;84.58
69127;BME280;56688;50.234;19.292;2023-07-31T01:05:25;98109.46;;;17.71;84.35
69127;BME280;56688;50.234;19.292;2023-07-31T01:08:04;98113.73;;;17.67;84.38
69127;BME280;56688;50.234;19.292;2023-07-31T01:10:40;98114.44;;;17.64;84.25
69127;BME280;56688;50.234;19.292;2023-07-31T01:13:10;98115.58;;;17.61;84.39
69127;BME280;56688;50.234;19.292;2023-07-31T01:15:37;98118.27;;;17.58;84.37
69127;BME280;56688;50.234;19.292;2023-07-31T01:18:05;98123.05;;;17.54;84.59
69127;BME280;56688;50.234;19.292;2023-07-31T01:20:33;98121.76;;;17.47;84.78
69127;BME280;56688;50.234;19.292;2023-07-31T01:26:03;98129.35;;;17.40;84.94
69127;BME280;56688;50.234;19.292;2023-07-31T01:31:23;98130.94;;;17.39;84.53
69127;BME280;56688;50.234;19.292;2023-07-31T01:33:53;98128.84;;;17.40;84.26
69127;BME280;56688;50.234;19.292;2023-07-31T01:36:22;98127.26;;;17.41;83.98
69127;BME280;56688;50.234;19.292;2023-07-31T01:38:50;98124.60;;;17.38;83.83
69127;BME280;56688;50.234;19.292;2023-07-31T01:41:18;98135.58;;;17.40;83.67
69127;BME280;56688;50.234;19.292;2023-07-31T01:43:46;98140.38;;;17.35;83.77
69127;BME280;56688;50.234;19.292;2023-07-31T01:46:13;98134.29;;;17.28;83.66
69127;BME280;56688;50.234;19.292;2023-07-31T01:48:40;98139.09;;;17.28;83.68
69127;BME280;56688;50.234;19.292;2023-07-31T01:51:08;98145.17;;;17.24;83.92
69127;BME280;56688;50.234;19.292;2023-07-31T01:53:35;98146.06;;;17.23;83.79
69127;BME280;56688;50.234;19.292;2023-07-31T01:56:02;98145.66;;;17.24;83.71
69127;BME280;56688;50.234;19.292;2023-07-31T01:58:30;98146.79;;;17.24;83.48
69127;BME280;56688;50.234;19.292;2023-07-31T02:00:57;98152.56;;;17.24;83.23
69127;BME280;56688;50.234;19.292;2023-07-31T02:03:24;98158.17;;;17.24;82.92
69127;BME280;56688;50.234;19.292;2023-07-31T02:05:53;98158.11;;;17.23;82.85
69127;BME280;56688;50.234;19.292;2023-07-31T02:08:21;98154.05;;;17.22;82.78
69127;BME280;56688;50.234;19.292;2023-07-31T02:10:48;98150.46;;;17.21;82.76
69127;BME280;56688;50.234;19.292;2023-07-31T02:13:15;98151.80;;;17.23;82.70
69127;BME280;56688;50.234;19.292;2023-07-31T02:15:41;98156.70;;;17.23;82.67
69127;BME280;56688;50.234;19.292;2023-07-31T02:18:08;98158.05;;;17.20;82.63
69127;BME280;56688;50.234;19.292;2023-07-31T02:20:35;98161.82;;;17.19;82.92
69127;BME280;56688;50.234;19.292;2023-07-31T02:23:02;98166.88;;;17.21;82.87
69127;BME280;56688;50.234;19.292;2023-07-31T02:25:29;98174.54;;;17.21;82.99
69127;BME280;56688;50.234;19.292;2023-07-31T02:27:57;98177.77;;;17.23;82.86
69127;BME280;56688;50.234;19.292;2023-07-31T02:30:25;98182.53;;;17.26;83.00
69127;BME280;56688;50.234;19.292;2023-07-31T02:32:52;98180.42;;;17.29;83.02
69127;BME280;56688;50.234;19.292;2023-07-31T02:35:19;98182.02;;;17.33;82.84
69127;BME280;56688;50.234;19.292;2023-07-31T02:37:46;98185.84;;;17.35;82.83
69127;BME280;56688;50.234;19.292;2023-07-31T02:40:13;98187.52;;;17.35;82.74
69127;BME280;56688;50.234;19.292;2023-07-31T02:42:40;98184.13;;;17.35;82.75
69127;BME280;56688;50.234;19.292;2023-07-31T02:45:07;98182.81;;;17.38;82.90
69127;BME280;56688;50.234;19.292;2023-07-31T02:47:34;98179.77;;;17.41;82.57
69127;BME280;56688;50.234;19.292;2023-07-31T02:50:02;98175.98;;;17.42;82.46
69127;BME280;56688;50.234;19.292;2023-07-31T02:52:30;98183.94;;;17.50;82.34
69127;BME280;56688;50.234;19.292;2023-07-31T02:54:58;98179.38;;;17.55;82.23
69127;BME280;56688;50.234;19.292;2023-07-31T02:57:25;98176.10;;;17.59;81.95
69127;BME280;56688;50.234;19.292;2023-07-31T02:59:52;98176.73;;;17.62;81.48
69127;BME280;56688;50.234;19.292;2023-07-31T03:02:18;98178.64;;;17.62;81.53
69127;BME280;56688;50.234;19.292;2023-07-31T03:04:46;98179.19;;;17.65;81.53
69127;BME280;56688;50.234;19.292;2023-07-31T03:07:14;98180.27;;;17.68;81.67
69127;BME280;56688;50.234;19.292;2023-07-31T03:09:41;98172.70;;;17.67;81.36
69127;BME280;56688;50.234;19.292;2023-07-31T03:12:08;98180.89;;;17.70;81.20
69127;BME280;56688;50.234;19.292;2023-07-31T03:14:36;98189.25;;;17.70;81.11
69127;BME280;56688;50.234;19.292;2023-07-31T03:17:03;98197.59;;;17.67;80.97
69127;BME280;56688;50.234;19.292;2023-07-31T03:19:31;98208.94;;;17.62;81.01
69127;BME280;56688;50.234;19.292;2023-07-31T03:21:59;98210.75;;;17.60;81.30
69127;BME280;56688;50.234;19.292;2023-07-31T03:24:28;98209.69;;;17.57;81.58
69127;BME280;56688;50.234;19.292;2023-07-31T03:26:56;98205.53;;;17.55;81.53
69127;BME280;56688;50.234;19.292;2023-07-31T03:29:23;98213.29;;;17.63;81.64
69127;BME280;56688;50.234;19.292;2023-07-31T03:31:51;98214.20;;;17.67;81.43
69127;BME280;56688;50.234;19.292;2023-07-31T03:34:18;98219.48;;;17.69;81.26
69127;BME280;56688;50.234;19.292;2023-07-31T03:36:45;98221.71;;;17.70;81.13
69127;BME280;56688;50.234;19.292;2023-07-31T03:39:13;98225.83;;;17.66;81.17
69127;BME280;56688;50.234;19.292;2023-07-31T03:41:43;98226.73;;;17.59;81.28
69127;BME280;56688;50.234;19.292;2023-07-31T03:44:10;98226.63;;;17.55;81.39
69127;BME280;56688;50.234;19.292;2023-07-31T03:46:37;98224.90;;;17.57;81.57
69127;BME280;56688;50.234;19.292;2023-07-31T03:49:05;98222.39;;;17.61;81.44
69127;BME280;56688;50.234;19.292;2023-07-31T03:51:32;98223.72;;;17.65;81.29
69127;BME280;56688;50.234;19.292;2023-07-31T03:54:00;98219.54;;;17.69;81.11
69127;BME280;56688;50.234;19.292;2023-07-31T03:56:27;98218.82;;;17.76;80.99
69127;BME280;56688;50.234;19.292;2023-07-31T03:58:55;98221.60;;;17.78;80.59
69127;BME280;56688;50.234;19.292;2023-07-31T04:01:22;98215.84;;;17.79;80.36
69127;BME280;56688;50.234;19.292;2023-07-31T04:03:50;98218.35;;;17.78;80.15
69127;BME280;56688;50.234;19.292;2023-07-31T04:06:16;98226.70;;;17.81;79.89
69127;BME280;56688;50.234;19.292;2023-07-31T04:08:45;98216.63;;;17.83;79.48
69127;BME280;56688;50.234;19.292;2023-07-31T04:11:12;98223.95;;;17.90;79.05
69127;BME280;56688;50.234;19.292;2023-07-31T04:13:39;98222.70;;;17.96;78.90
69127;BME280;56688;50.234;19.292;2023-07-31T04:16:06;98231.77;;;18.03;78.77
69127;BME280;56688;50.234;19.292;2023-07-31T04:18:33;98232.05;;;18.10;78.39
69127;BME280;56688;50.234;19.292;2023-07-31T04:21:00;98233.74;;;18.15;77.79
69127;BME280;56688;50.234;19.292;2023-07-31T04:23:29;98226.84;;;18.22;77.74
69127;BME280;56688;50.234;19.292;2023-07-31T04:25:56;98226.73;;;18.34;77.56
69127;BME280;56688;50.234;19.292;2023-07-31T04:28:23;98228.55;;;18.43;76.93
69127;BME280;56688;50.234;19.292;2023-07-31T04:30:50;98228.34;;;18.51;76.25
69127;BME280;56688;50.234;19.292;2023-07-31T04:33:17;98231.56;;;18.59;75.71
69127;BME280;56688;50.234;19.292;2023-07-31T04:35:52;98230.14;;;18.64;74.99
69127;BME280;56688;50.234;19.292;2023-07-31T04:38:21;98228.87;;;18.68;74.63
69127;BME280;56688;50.234;19.292;2023-07-31T04:40:48;98225.55;;;18.73;74.52
69127;BME280;56688;50.234;19.292;2023-07-31T04:43:15;98224.55;;;18.80;74.41
69127;BME280;56688;50.234;19.292;2023-07-31T04:45:45;98224.08;;;18.87;73.59
69127;BME280;56688;50.234;19.292;2023-07-31T04:48:14;98234.44;;;18.96;73.23
69127;BME280;56688;50.234;19.292;2023-07-31T04:50:41;98240.40;;;19.04;72.60
69127;BME280;56688;50.234;19.292;2023-07-31T04:53:08;98238.67;;;19.08;72.26
69127;BME280;56688;50.234;19.292;2023-07-31T04:55:35;98237.55;;;19.21;72.12
69127;BME280;56688;50.234;19.292;2023-07-31T04:58:02;98239.55;;;19.37;71.26
69127;BME280;56688;50.234;19.292;2023-07-31T05:00:29;98243.92;;;19.60;70.47
69127;BME280;56688;50.234;19.292;2023-07-31T05:02:56;98243.55;;;19.89;69.80
69127;BME280;56688;50.234;19.292;2023-07-31T05:05:23;98242.20;;;20.10;68.35
69127;BME280;56688;50.234;19.292;2023-07-31T05:07:50;98240.40;;;20.26;67.40
69127;BME280;56688;50.234;19.292;2023-07-31T05:10:17;98244.41;;;20.46;66.69
69127;BME280;56688;50.234;19.292;2023-07-31T05:12:44;98244.89;;;20.55;65.62
69127;BME280;56688;50.234;19.292;2023-07-31T05:15:11;98247.89;;;20.59;65.50
69127;BME280;56688;50.234;19.292;2023-07-31T05:17:38;98247.75;;;20.55;65.06
69127;BME280;56688;50.234;19.292;2023-07-31T05:20:06;98250.17;;;20.54;65.73
69127;BME280;56688;50.234;19.292;2023-07-31T05:22:34;98248.73;;;20.49;65.42
69127;BME280;56688;50.234;19.292;2023-07-31T05:25:04;98250.30;;;20.39;65.44
69127;BME280;56688;50.234;19.292;2023-07-31T05:27:32;98251.45;;;20.35;66.08
69127;BME280;56688;50.234;19.292;2023-07-31T05:29:59;98252.13;;;20.32;65.78
69127;BME280;56688;50.234;19.292;2023-07-31T05:32:26;98252.67;;;20.27;65.62
69127;BME280;56688;50.234;19.292;2023-07-31T05:34:54;98255.58;;;20.24;66.21
69127;BME280;56688;50.234;19.292;2023-07-31T05:37:21;98257.73;;;20.28;66.33
69127;BME280;56688;50.234;19.292;2023-07-31T05:39:48;98253.88;;;20.33;66.05
69127;BME280;56688;50.234;19.292;2023-07-31T05:42:16;98253.99;;;20.40;65.79
69127;BME280;56688;50.234;19.292;2023-07-31T05:44:43;98252.81;;;20.40;65.27
69127;BME280;56688;50.234;19.292;2023-07-31T05:47:11;98252.82;;;20.46;66.20
69127;BME280;56688;50.234;19.292;2023-07-31T05:49:38;98252.09;;;20.48;65.25
69127;BME280;56688;50.234;19.292;2023-07-31T05:52:05;98255.09;;;20.45;64.97
69127;BME280;56688;50.234;19.292;2023-07-31T05:54:32;98258.39;;;20.35;64.77
69127;BME280;56688;50.234;19.292;2023-07-31T05:57:00;98262.06;;;20.34;64.50
69127;BME280;56688;50.234;19.292;2023-07-31T05:59:27;98264.81;;;20.19;65.11
69127;BME280;56688;50.234;19.292;2023-07-31T06:01:54;98263.68;;;20.21;66.02
69127;BME280;56688;50.234;19.292;2023-07-31T06:04:22;98264.27;;;20.31;66.41
69127;BME280;56688;50.234;19.292;2023-07-31T06:06:51;98262.37;;;20.37;65.35
69127;BME280;56688;50.234;19.292;2023-07-31T06:09:19;98254.33;;;20.30;65.10
69127;BME280;56688;50.234;19.292;2023-07-31T06:11:47;98262.67;;;20.35;64.94
69127;BME280;56688;50.234;19.292;2023-07-31T06:14:14;98263.40;;;20.37;65.29
69127;BME280;56688;50.234;19.292;2023-07-31T06:16:41;98266.27;;;20.50;65.36
69127;BME280;56688;50.234;19.292;2023-07-31T06:19:08;98263.71;;;20.63;65.59
69127;BME280;56688;50.234;19.292;2023-07-31T06:21:36;98258.98;;;20.73;63.94
69127;BME280;56688;50.234;19.292;2023-07-31T06:24:05;98256.65;;;20.83;63.63
69127;BME280;56688;50.234;19.292;2023-07-31T06:26:33;98250.25;;;20.92;63.47
69127;BME280;56688;50.234;19.292;2023-07-31T06:29:00;98255.71;;;20.97;63.32
69127;BME280;56688;50.234;19.292;2023-07-31T06:31:27;98255.41;;;21.00;62.69
69127;BME280;56688;50.234;19.292;2023-07-31T06:33:54;98256.62;;;21.10;62.01
69127;BME280;56688;50.234;19.292;2023-07-31T06:36:21;98257.31;;;21.30;62.11
69127;BME280;56688;50.234;19.292;2023-07-31T06:38:48;98257.95;;;21.37;61.99
69127;BME280;56688;50.234;19.292;2023-07-31T06:41:15;98255.75;;;21.44;60.32
69127;BME280;56688;50.234;19.292;2023-07-31T06:43:42;98252.14;;;21.64;60.65
69127;BME280;56688;50.234;19.292;2023-07-31T06:46:10;98252.88;;;21.88;59.92
69127;BME280;56688;50.234;19.292;2023-07-31T06:48:38;98249.85;;;22.08;58.90
69127;BME280;56688;50.234;19.292;2023-07-31T06:51:05;98256.27;;;22.08;58.08
69127;BME280;56688;50.234;19.292;2023-07-31T06:53:32;98257.59;;;22.11;58.12
69127;BME280;56688;50.234;19.292;2023-07-31T06:55:59;98257.88;;;22.20;58.62
69127;BME280;56688;50.234;19.292;2023-07-31T06:58:26;98255.63;;;22.49;58.22
69127;BME280;56688;50.234;19.292;2023-07-31T07:00:53;98256.02;;;22.72;56.41
69127;BME280;56688;50.234;19.292;2023-07-31T07:03:21;98257.88;;;22.89;55.48
69127;BME280;56688;50.234;19.292;2023-07-31T07:05:49;98259.41;;;23.01;55.02
69127;BME280;56688;50.234;19.292;2023-07-31T07:08:16;98254.37;;;23.11;54.65
69127;BME280;56688;50.234;19.292;2023-07-31T07:10:44;98255.71;;;23.24;54.22
69127;BME280;56688;50.234;19.292;2023-07-31T07:13:11;98253.04;;;23.37;53.68
69127;BME280;56688;50.234;19.292;2023-07-31T07:15:39;98255.86;;;23.46;53.86
69127;BME280;56688;50.234;19.292;2023-07-31T07:18:06;98256.84;;;23.45;51.45
69127;BME280;56688;50.234;19.292;2023-07-31T07:20:34;98254.55;;;23.48;51.35
69127;BME280;56688;50.234;19.292;2023-07-31T07:23:01;98255.23;;;23.54;51.68
69127;BME280;56688;50.234;19.292;2023-07-31T07:25:28;98255.48;;;23.58;51.40
69127;BME280;56688;50.234;19.292;2023-07-31T07:27:55;98250.41;;;23.60;51.03
69127;BME280;56688;50.234;19.292;2023-07-31T07:30:22;98252.44;;;23.59;51.40
69127;BME280;56688;50.234;19.292;2023-07-31T07:32:51;98256.83;;;23.71;50.58
69127;BME280;56688;50.234;19.292;2023-07-31T07:35:18;98259.36;;;23.79;50.42
69127;BME280;56688;50.234;19.292;2023-07-31T07:37:45;98254.58;;;23.88;50.30
69127;BME280;56688;50.234;19.292;2023-07-31T07:40:12;98256.08;;;23.91;50.23
69127;BME280;56688;50.234;19.292;2023-07-31T07:42:39;98253.99;;;24.03;49.86
69127;BME280;56688;50.234;19.292;2023-07-31T07:45:06;98253.63;;;24.18;49.36
69127;BME280;56688;50.234;19.292;2023-07-31T07:47:33;98242.29;;;24.27;49.11
69127;BME280;56688;50.234;19.292;2023-07-31T07:50:00;98246.67;;;24.43;48.16
69127;BME280;56688;50.234;19.292;2023-07-31T07:52:28;98248.48;;;24.64;47.72
69127;BME280;56688;50.234;19.292;2023-07-31T07:54:55;98245.91;;;24.82;47.78
69127;BME280;56688;50.234;19.292;2023-07-31T07:57:22;98250.77;;;25.02;47.02
69127;BME280;56688;50.234;19.292;2023-07-31T07:59:50;98249.20;;;25.07;47.33
69127;BME280;56688;50.234;19.292;2023-07-31T08:02:17;98248.84;;;24.84;47.44
69127;BME280;56688;50.234;19.292;2023-07-31T08:04:44;98251.84;;;24.91;47.50
69127;BME280;56688;50.234;19.292;2023-07-31T08:07:12;98248.18;;;25.21;48.51
69127;BME280;56688;50.234;19.292;2023-07-31T08:09:40;98241.95;;;25.56;47.64
69127;BME280;56688;50.234;19.292;2023-07-31T08:12:08;98245.18;;;25.95;46.73
69127;BME280;56688;50.234;19.292;2023-07-31T08:14:37;98247.82;;;26.26;45.27
69127;BME280;56688;50.234;19.292;2023-07-31T08:17:04;98251.45;;;26.35;44.97
69127;BME280;56688;50.234;19.292;2023-07-31T08:19:31;98251.84;;;26.45;45.64
69127;BME280;56688;50.234;19.292;2023-07-31T08:21:58;98258.02;;;26.45;44.80
69127;BME280;56688;50.234;19.292;2023-07-31T08:24:25;98261.53;;;26.41;43.41
69127;BME280;56688;50.234;19.292;2023-07-31T08:26:53;98258.84;;;26.44;45.15
69127;BME280;56688;50.234;19.292;2023-07-31T08:29:21;98257.02;;;26.53;43.27
69127;BME280;56688;50.234;19.292;2023-07-31T08:31:48;98255.27;;;26.38;44.46
69127;BME280;56688;50.234;19.292;2023-07-31T08:34:16;98255.17;;;26.21;45.42
69127;BME280;56688;50.234;19.292;2023-07-31T08:36:43;98256.17;;;26.04;45.54
69127;BME280;56688;50.234;19.292;2023-07-31T08:39:10;98257.59;;;26.09;44.69
69127;BME280;56688;50.234;19.292;2023-07-31T08:41:38;98260.09;;;26.06;44.67
69127;BME280;56688;50.234;19.292;2023-07-31T08:44:07;98259.42;;;25.81;44.70
69127;BME280;56688;50.234;19.292;2023-07-31T08:46:34;98264.52;;;25.82;45.63
69127;BME280;56688;50.234;19.292;2023-07-31T08:49:04;98259.51;;;26.10;44.37
69127;BME280;56688;50.234;19.292;2023-07-31T08:51:36;98260.73;;;26.22;44.17
69127;BME280;56688;50.234;19.292;2023-07-31T08:54:03;98260.30;;;26.42;43.67
69127;BME280;56688;50.234;19.292;2023-07-31T08:56:32;98254.58;;;26.81;43.89
69127;BME280;56688;50.234;19.292;2023-07-31T08:59:01;98249.85;;;27.22;42.78
69127;BME280;56688;50.234;19.292;2023-07-31T09:01:30;98252.53;;;27.83;41.02
69127;BME280;56688;50.234;19.292;2023-07-31T09:03:59;98253.71;;;28.20;40.10
69127;BME280;56688;50.234;19.292;2023-07-31T09:06:30;98254.98;;;28.56;39.53
69127;BME280;56688;50.234;19.292;2023-07-31T09:08:57;98248.54;;;28.83;37.81
69127;BME280;56688;50.234;19.292;2023-07-31T09:11:25;98248.08;;;28.77;38.03
69127;BME280;56688;50.234;19.292;2023-07-31T09:13:53;98250.72;;;28.35;38.38
69127;BME280;56688;50.234;19.292;2023-07-31T09:16:30;98250.71;;;27.94;39.18
69127;BME280;56688;50.234;19.292;2023-07-31T09:18:59;98247.14;;;27.79;39.78
69127;BME280;56688;50.234;19.292;2023-07-31T09:21:28;98240.30;;;27.90;38.94
69127;BME280;56688;50.234;19.292;2023-07-31T09:23:57;98239.04;;;27.80;37.52
69127;BME280;56688;50.234;19.292;2023-07-31T09:26:34;98239.30;;;27.73;38.38
69127;BME280;56688;50.234;19.292;2023-07-31T09:29:04;98236.05;;;27.91;37.65
69127;BME280;56688;50.234;19.292;2023-07-31T09:34:09;98240.45;;;27.99;39.55
69127;BME280;56688;50.234;19.292;2023-07-31T09:36:44;98240.80;;;28.19;39.16
69127;BME280;56688;50.234;19.292;2023-07-31T09:39:13;98236.34;;;28.08;38.59
69127;BME280;56688;50.234;19.292;2023-07-31T09:41:42;98238.00;;;27.82;39.70
69127;BME280;56688;50.234;19.292;2023-07-31T09:44:10;98234.31;;;27.52;38.85
69127;BME280;56688;50.234;19.292;2023-07-31T09:46:38;98230.48;;;27.41;39.02
69127;BME280;56688;50.234;19.292;2023-07-31T09:51:38;98223.13;;;26.89;37.72
69127;BME280;56688;50.234;19.292;2023-07-31T09:54:14;98214.27;;;26.73;38.88
69127;BME280;56688;50.234;19.292;2023-07-31T09:56:45;98210.25;;;26.92;39.37
69127;BME280;56688;50.234;19.292;2023-07-31T09:59:18;98209.85;;;27.19;40.25
69127;BME280;56688;50.234;19.292;2023-07-31T10:01:50;98206.23;;;27.35;39.76
69127;BME280;56688;50.234;19.292;2023-07-31T10:04:21;98206.92;;;27.39;39.56
69127;BME280;56688;50.234;19.292;2023-07-31T10:06:53;98203.39;;;27.35;39.86
69127;BME280;56688;50.234;19.292;2023-07-31T10:09:21;98203.16;;;27.49;38.60
69127;BME280;56688;50.234;19.292;2023-07-31T10:11:58;98201.83;;;27.60;40.10
69127;BME280;56688;50.234;19.292;2023-07-31T10:14:27;98198.04;;;27.70;38.45
69127;BME280;56688;50.234;19.292;2023-07-31T10:16:57;98197.05;;;27.66;37.20
69127;BME280;56688;50.234;19.292;2023-07-31T10:19:26;98200.94;;;27.25;37.17
69127;BME280;56688;50.234;19.292;2023-07-31T10:21:54;98202.20;;;26.86;37.92
69127;BME280;56688;50.234;19.292;2023-07-31T10:24:24;98197.26;;;26.71;40.11
69127;BME280;56688;50.234;19.292;2023-07-31T10:26:51;98186.04;;;26.60;38.37
69127;BME280;56688;50.234;19.292;2023-07-31T10:29:20;98195.55;;;26.42;38.94
69127;BME280;56688;50.234;19.292;2023-07-31T10:31:48;98195.06;;;26.26;38.31
69127;BME280;56688;50.234;19.292;2023-07-31T10:34:17;98197.10;;;26.23;38.44
69127;BME280;56688;50.234;19.292;2023-07-31T10:36:44;98190.42;;;26.27;37.71
69127;BME280;56688;50.234;19.292;2023-07-31T10:39:34;98185.96;;;26.31;38.96
69127;BME280;56688;50.234;19.292;2023-07-31T10:42:11;98183.87;;;26.28;38.91
69127;BME280;56688;50.234;19.292;2023-07-31T10:44:43;98175.79;;;26.22;40.67
69127;BME280;56688;50.234;19.292;2023-07-31T10:47:14;98180.52;;;26.32;39.41
69127;BME280;56688;50.234;19.292;2023-07-31T10:49:44;98178.17;;;26.30;38.39
69127;BME280;56688;50.234;19.292;2023-07-31T10:52:13;98180.09;;;26.07;38.22
69127;BME280;56688;50.234;19.292;2023-07-31T10:54:40;98173.80;;;25.99;38.59
69127;BME280;56688;50.234;19.292;2023-07-31T10:57:23;98170.21;;;26.04;38.66
69127;BME280;56688;50.234;19.292;2023-07-31T11:08:26;98167.66;;;26.77;38.15
69127;BME280;56688;50.234;19.292;2023-07-31T11:11:05;98159.63;;;26.96;37.54
69127;BME280;56688;50.234;19.292;2023-07-31T11:13:39;98157.21;;;26.87;37.34
69127;BME280;56688;50.234;19.292;2023-07-31T11:16:06;98150.10;;;26.83;38.73
69127;BME280;56688;50.234;19.292;2023-07-31T11:18:34;98144.45;;;26.93;38.88
69127;BME280;56688;50.234;19.292;2023-07-31T11:21:01;98145.36;;;27.02;36.07
69127;BME280;56688;50.234;19.292;2023-07-31T11:23:30;98141.32;;;26.96;36.76
69127;BME280;56688;50.234;19.292;2023-07-31T11:26:00;98145.94;;;26.78;36.83
69127;BME280;56688;50.234;19.292;2023-07-31T11:28:32;98148.73;;;26.64;37.29
69127;BME280;56688;50.234;19.292;2023-07-31T11:31:01;98150.11;;;26.62;39.24
69127;BME280;56688;50.234;19.292;2023-07-31T11:33:29;98143.00;;;26.89;37.94
69127;BME280;56688;50.234;19.292;2023-07-31T11:35:56;98141.02;;;27.24;37.51
69127;BME280;56688;50.234;19.292;2023-07-31T11:38:26;98141.00;;;27.61;36.66
69127;BME280;56688;50.234;19.292;2023-07-31T11:40:54;98140.17;;;27.93;37.23
69127;BME280;56688;50.234;19.292;2023-07-31T11:43:22;98139.59;;;28.25;36.22
69127;BME280;56688;50.234;19.292;2023-07-31T11:45:53;98138.09;;;28.50;35.21
69127;BME280;56688;50.234;19.292;2023-07-31T11:50:51;98143.08;;;28.05;36.20
69127;BME280;56688;50.234;19.292;2023-07-31T11:53:25;98134.34;;;28.31;35.96
69127;BME280;56688;50.234;19.292;2023-07-31T11:55:54;98131.35;;;28.74;35.47
69127;BME280;56688;50.234;19.292;2023-07-31T11:58:22;98127.20;;;29.07;34.11
69127;BME280;56688;50.234;19.292;2023-07-31T12:00:50;98125.84;;;29.39;34.98
69127;BME280;56688;50.234;19.292;2023-07-31T12:03:17;98119.39;;;29.70;33.09
69127;BME280;56688;50.234;19.292;2023-07-31T12:05:47;98116.14;;;29.94;33.71
69127;BME280;56688;50.234;19.292;2023-07-31T12:08:14;98118.95;;;29.78;33.94
69127;BME280;56688;50.234;19.292;2023-07-31T12:10:42;98115.89;;;29.54;33.46
69127;BME280;56688;50.234;19.292;2023-07-31T12:13:12;98111.65;;;29.56;33.36
69127;BME280;56688;50.234;19.292;2023-07-31T12:15:46;98100.09;;;29.71;33.71
69127;BME280;56688;50.234;19.292;2023-07-31T12:18:15;98093.81;;;29.89;33.60
69127;BME280;56688;50.234;19.292;2023-07-31T12:20:45;98093.68;;;29.91;32.45
69127;BME280;56688;50.234;19.292;2023-07-31T12:23:19;98090.65;;;30.13;33.13
69127;BME280;56688;50.234;19.292;2023-07-31T12:25:46;98078.84;;;30.43;32.21
69127;BME280;56688;50.234;19.292;2023-07-31T12:28:13;98088.34;;;30.70;31.02
69127;BME280;56688;50.234;19.292;2023-07-31T12:30:40;98082.31;;;30.94;30.78
69127;BME280;56688;50.234;19.292;2023-07-31T12:33:13;98076.35;;;31.24;32.01
69127;BME280;56688;50.234;19.292;2023-07-31T12:35:44;98070.77;;;31.18;30.80
69127;BME280;56688;50.234;19.292;2023-07-31T12:38:12;98071.61;;;30.75;31.51
69127;BME280;56688;50.234;19.292;2023-07-31T12:40:41;98071.19;;;30.25;31.50
69127;BME280;56688;50.234;19.292;2023-07-31T12:43:08;98072.46;;;29.85;33.02
69127;BME280;56688;50.234;19.292;2023-07-31T12:45:35;98069.13;;;29.87;32.77
69127;BME280;56688;50.234;19.292;2023-07-31T12:48:02;98058.95;;;30.22;32.48
69127;BME280;56688;50.234;19.292;2023-07-31T12:50:30;98061.55;;;30.37;31.95
69127;BME280;56688;50.234;19.292;2023-07-31T12:52:57;98059.70;;;30.56;31.98
69127;BME280;56688;50.234;19.292;2023-07-31T12:55:24;98060.98;;;31.01;31.22
69127;BME280;56688;50.234;19.292;2023-07-31T12:57:51;98055.73;;;31.11;30.44
69127;BME280;56688;50.234;19.292;2023-07-31T13:00:21;98054.69;;;30.75;31.31
69127;BME280;56688;50.234;19.292;2023-07-31T13:02:48;98057.23;;;30.54;32.70
69127;BME280;56688;50.234;19.292;2023-07-31T13:05:16;98060.13;;;30.12;31.61
69127;BME280;56688;50.234;19.292;2023-07-31T13:07:43;98061.23;;;29.56;32.83
69127;BME280;56688;50.234;19.292;2023-07-31T13:10:10;98054.16;;;29.11;33.42
69127;BME280;56688;50.234;19.292;2023-07-31T13:12:37;98050.15;;;28.96;34.10
69127;BME280;56688;50.234;19.292;2023-07-31T13:15:06;98047.20;;;29.04;34.28
69127;BME280;56688;50.234;19.292;2023-07-31T13:17:33;98048.65;;;29.19;33.31